sensor_id;sensor_type;location;lat;lon;timestamp;P1;durP1;ratioP1;P2;durP2;ratioP2
9264;SDS011;4669;49.594;10.958;2023-08-01T04:26:45;4.38;;;3.97;;
9264;SDS011;4669;49.594;10.958;2023-08-01T04:31:47;4.13;;;3.72;;
9264;SDS011;4669;49.594;10.958;2023-08-01T04:36:48;5.10;;;4.38;;
9264;SDS011;4669;49.594;10.958;2023-08-01T04:41:52;7.90;;;4.18;;
9264;SDS011;4669;49.594;10.958;2023-08-01T04:46:54;6.13;;;4.55;;
9264;SDS011;4669;49.594;10.958;2023-08-01T04:51:56;5.53;;;3.95;;
9264;SDS011;4669;49.594;10.958;2023-08-01T04:56:59;6.00;;;4.22;;
9264;SDS011;4669;49.594;10.958;2023-08-01T05:02:01;6.35;;;3.72;;
9264;SDS011;4669;49.594;10.958;2023-08-01T05:07:03;5.13;;;4.00;;
9264;SDS011;4669;49.594;10.958;2023-08-01T05:12:08;5.97;;;4.05;;
9264;SDS011;4669;49.594;10.958;2023-08-01T05:17:10;5.55;;;4.47;;
9264;SDS011;4669;49.594;10.958;2023-08-01T05:22:12;6.32;;;4.07;;
9264;SDS011;4669;49.594;10.958;2023-08-01T05:27:15;8.45;;;5.78;;
9264;SDS011;4669;49.594;10.958;2023-08-01T05:32:17;6.35;;;4.28;;
9264;SDS011;4669;49.594;10.958;2023-08-01T05:37:19;5.20;;;4.25;;
9264;SDS011;4669;49.594;10.958;2023-08-01T05:42:22;5.57;;;4.30;;
9264;SDS011;4669;49.594;10.958;2023-08-01T05:47:24;9.00;;;3.88;;
9264;SDS011;4669;49.594;10.958;2023-08-01T05:52:26;5.95;;;4.32;;
9264;SDS011;4669;49.594;10.958;2023-08-01T05:57:29;5.78;;;3.80;;
9264;SDS011;4669;49.594;10.958;2023-08-01T06:02:31;7.25;;;4.07;;
9264;SDS011;4669;49.594;10.958;2023-08-01T06:07:33;6.50;;;4.60;;
9264;SDS011;4669;49.594;10.958;2023-08-01T06:12:36;6.38;;;3.90;;
9264;SDS011;4669;49.594;10.958;2023-08-01T06:17:38;6.57;;;3.95;;
9264;SDS011;4669;49.594;10.958;2023-08-01T06:22:41;4.80;;;3.70;;
9264;SDS011;4669;49.594;10.958;2023-08-01T06:27:45;6.38;;;4.13;;
9264;SDS011;4669;49.594;10.958;2023-08-01T17:36:47;3.20;;;2.88;;
9264;SDS011;4669;49.594;10.958;2023-08-01T17:41:48;2.95;;;1.60;;
9264;SDS011;4669;49.594;10.958;2023-08-01T17:46:53;2.20;;;1.48;;
9264;SDS011;4669;49.594;10.958;2023-08-01T17:51:56;3.90;;;1.85;;
9264;SDS011;4669;49.594;10.958;2023-08-01T17:56:58;2.53;;;1.58;;
9264;SDS011;4669;49.594;10.958;2023-08-01T18:02:00;2.50;;;1.80;;
9264;SDS011;4669;49.594;10.958;2023-08-01T18:07:03;3.50;;;1.65;;
9264;SDS011;4669;49.594;10.958;2023-08-01T18:12:05;5.45;;;3.80;;
9264;SDS011;4669;49.594;10.958;2023-08-01T18:17:08;4.53;;;3.05;;
9264;SDS011;4669;49.594;10.958;2023-08-01T18:22:11;2.10;;;1.40;;
9264;SDS011;4669;49.594;10.958;2023-08-01T18:27:13;2.13;;;1.42;;
9264;SDS011;4669;49.594;10.958;2023-08-01T18:32:15;2.47;;;1.40;;
9264;SDS011;4669;49.594;10.958;2023-08-01T18:37:18;3.47;;;2.42;;
9264;SDS011;4669;49.594;10.958;2023-08-01T18:42:20;2.35;;;1.50;;
9264;SDS011;4669;49.594;10.958;2023-08-01T18:47:22;2.90;;;1.50;;
9264;SDS011;4669;49.594;10.958;2023-08-01T18:52:25;3.10;;;1.30;;
9264;SDS011;4669;49.594;10.958;2023-08-01T18:57:29;2.95;;;1.58;;
9264;SDS011;4669;49.594;10.958;2023-08-01T19:02:31;2.05;;;1.40;;
9264;SDS011;4669;49.594;10.958;2023-08-01T19:07:34;2.25;;;1.50;;
9264;SDS011;4669;49.594;10.958;2023-08-01T19:12:36;3.83;;;2.03;;
9264;SDS011;4669;49.594;10.958;2023-08-01T19:17:38;2.15;;;1.40;;
9264;SDS011;4669;49.594;10.958;2023-08-01T19:22:42;2.78;;;1.33;;
9264;SDS011;4669;49.594;10.958;2023-08-01T19:27:44;1.40;;;1.30;;
9264;SDS011;4669;49.594;10.958;2023-08-01T19:32:48;2.47;;;1.33;;
9264;SDS011;4669;49.594;10.958;2023-08-01T19:37:51;2.55;;;1.10;;
9264;SDS011;4669;49.594;10.958;2023-08-01T19:42:53;4.85;;;1.58;;
9264;SDS011;4669;49.594;10.958;2023-08-01T19:47:55;3.92;;;1.70;;
9264;SDS011;4669;49.594;10.958;2023-08-01T19:52:58;3.38;;;1.50;;
9264;SDS011;4669;49.594;10.958;2023-08-01T19:58:00;2.33;;;1.38;;
9264;SDS011;4669;49.594;10.958;2023-08-01T20:03:02;2.42;;;1.30;;
9264;SDS011;4669;49.594;10.958;2023-08-01T20:08:05;1.85;;;1.73;;
9264;SDS011;4669;49.594;10.958;2023-08-01T20:13:07;2.47;;;1.75;;
9264;SDS011;4669;49.594;10.958;2023-08-01T20:18:09;2.03;;;1.20;;
9264;SDS011;4669;49.594;10.958;2023-08-01T20:23:12;2.35;;;1.30;;
9264;SDS011;4669;49.594;10.958;2023-08-01T20:28:14;1.90;;;1.20;;
9264;SDS011;4669;49.594;10.958;2023-08-01T20:33:17;4.05;;;1.40;;
9264;SDS011;4669;49.594;10.958;2023-08-01T20:38:22;2.13;;;1.40;;
9264;SDS011;4669;49.594;10.958;2023-08-01T20:43:24;2.33;;;1.33;;
9264;SDS011;4669;49.594;10.958;2023-08-01T20:48:27;3.10;;;1.48;;
9264;SDS011;4669;49.594;10.958;2023-08-01T20:53:30;1.75;;;1.65;;
9264;SDS011;4669;49.594;10.958;2023-08-01T20:58:32;4.95;;;1.60;;
9264;SDS011;4669;49.594;10.958;2023-08-01T21:03:33;1.33;;;1.17;;
9264;SDS011;4669;49.594;10.958;2023-08-01T21:08:37;3.55;;;1.38;;
9264;SDS011;4669;49.594;10.958;2023-08-01T21:18:45;2.75;;;1.67;;
9264;SDS011;4669;49.594;10.958;2023-08-01T21:23:49;4.75;;;1.92;;
9264;SDS011;4669;49.594;10.958;2023-08-01T21:28:50;3.90;;;1.73;;
9264;SDS011;4669;49.594;10.958;2023-08-01T21:33:59;3.92;;;2.17;;
9264;SDS011;4669;49.594;10.958;2023-08-01T21:39:02;6.00;;;2.08;;
9264;SDS011;4669;49.594;10.958;2023-08-01T21:44:04;4.28;;;1.70;;
9264;SDS011;4669;49.594;10.958;2023-08-01T21:49:05;5.38;;;1.40;;
9264;SDS011;4669;49.594;10.958;2023-08-01T21:54:09;2.90;;;1.75;;
9264;SDS011;4669;49.594;10.958;2023-08-01T21:59:10;2.83;;;1.73;;
